sensor_id;sensor_type;location;lat;lon;timestamp;P1;durP1;ratioP1;P2;durP2;ratioP2
18102;SDS011;9178;51.120;6.192;2023-07-09T00:01:10;8.63;;;5.75;;
18102;SDS011;9178;51.120;6.192;2023-07-09T00:03:42;10.50;;;6.32;;
18102;SDS011;9178;51.120;6.192;2023-07-09T00:06:09;8.48;;;5.97;;
18102;SDS011;9178;51.120;6.192;2023-07-09T00:08:37;8.18;;;5.72;;
18102;SDS011;9178;51.120;6.192;2023-07-09T00:11:09;6.80;;;5.47;;
18102;SDS011;9178;51.120;6.192;2023-07-09T00:13:37;9.02;;;6.80;;
18102;SDS011;9178;51.120;6.192;2023-07-09T00:16:07;10.05;;;6.13;;
18102;SDS011;9178;51.120;6.192;2023-07-09T00:18:39;8.38;;;6.07;;
18102;SDS011;9178;51.120;6.192;2023-07-09T00:21:06;7.68;;;6.20;;
18102;SDS011;9178;51.120;6.192;2023-07-09T00:23:33;8.10;;;5.85;;
18102;SDS011;9178;51.120;6.192;2023-07-09T00:26:00;8.20;;;5.47;;
18102;SDS011;9178;51.120;6.192;2023-07-09T00:28:28;8.07;;;5.88;;
18102;SDS011;9178;51.120;6.192;2023-07-09T00:30:57;7.97;;;5.20;;
18102;SDS011;9178;51.120;6.192;2023-07-09T00:33:24;7.13;;;5.40;;
18102;SDS011;9178;51.120;6.192;2023-07-09T00:35:56;9.13;;;5.40;;
18102;SDS011;9178;51.120;6.192;2023-07-09T00:38:24;7.20;;;5.63;;
18102;SDS011;9178;51.120;6.192;2023-07-09T00:40:58;7.07;;;5.50;;
18102;SDS011;9178;51.120;6.192;2023-07-09T00:43:31;8.30;;;5.75;;
18102;SDS011;9178;51.120;6.192;2023-07-09T00:46:14;8.60;;;6.00;;
18102;SDS011;9178;51.120;6.192;2023-07-09T00:48:59;7.30;;;5.25;;
18102;SDS011;9178;51.120;6.192;2023-07-09T00:51:30;7.95;;;5.05;;
18102;SDS011;9178;51.120;6.192;2023-07-09T00:54:05;6.55;;;5.28;;
18102;SDS011;9178;51.120;6.192;2023-07-09T00:56:39;6.68;;;5.80;;
18102;SDS011;9178;51.120;6.192;2023-07-09T00:59:11;8.52;;;5.25;;
18102;SDS011;9178;51.120;6.192;2023-07-09T01:01:42;6.80;;;4.70;;
18102;SDS011;9178;51.120;6.192;2023-07-09T01:04:12;7.63;;;5.63;;
18102;SDS011;9178;51.120;6.192;2023-07-09T01:06:43;5.88;;;5.25;;
18102;SDS011;9178;51.120;6.192;2023-07-09T01:09:14;7.75;;;5.25;;
18102;SDS011;9178;51.120;6.192;2023-07-09T01:11:41;7.50;;;5.07;;
18102;SDS011;9178;51.120;6.192;2023-07-09T01:14:10;6.50;;;5.13;;
18102;SDS011;9178;51.120;6.192;2023-07-09T01:16:43;8.77;;;5.68;;
18102;SDS011;9178;51.120;6.192;2023-07-09T01:19:13;6.45;;;4.65;;
18102;SDS011;9178;51.120;6.192;2023-07-09T01:21:43;5.43;;;4.75;;
18102;SDS011;9178;51.120;6.192;2023-07-09T01:24:11;6.25;;;4.75;;
18102;SDS011;9178;51.120;6.192;2023-07-09T01:26:40;7.90;;;4.88;;
18102;SDS011;9178;51.120;6.192;2023-07-09T01:29:09;7.63;;;4.68;;
18102;SDS011;9178;51.120;6.192;2023-07-09T01:31:37;6.30;;;4.93;;
18102;SDS011;9178;51.120;6.192;2023-07-09T01:34:04;5.97;;;4.72;;
18102;SDS011;9178;51.120;6.192;2023-07-09T01:36:33;6.35;;;4.88;;
18102;SDS011;9178;51.120;6.192;2023-07-09T01:39:01;5.85;;;4.25;;
18102;SDS011;9178;51.120;6.192;2023-07-09T01:41:29;7.40;;;4.72;;
18102;SDS011;9178;51.120;6.192;2023-07-09T01:43:59;9.20;;;5.85;;
18102;SDS011;9178;51.120;6.192;2023-07-09T01:46:26;7.40;;;5.00;;
18102;SDS011;9178;51.120;6.192;2023-07-09T01:48:53;5.18;;;4.68;;
18102;SDS011;9178;51.120;6.192;2023-07-09T01:51:21;6.15;;;5.15;;
18102;SDS011;9178;51.120;6.192;2023-07-09T01:53:49;6.53;;;5.13;;
18102;SDS011;9178;51.120;6.192;2023-07-09T01:56:18;5.65;;;4.80;;
18102;SDS011;9178;51.120;6.192;2023-07-09T01:58:44;8.75;;;5.45;;
18102;SDS011;9178;51.120;6.192;2023-07-09T02:01:12;7.25;;;5.28;;
18102;SDS011;9178;51.120;6.192;2023-07-09T02:03:40;8.55;;;5.50;;
18102;SDS011;9178;51.120;6.192;2023-07-09T02:06:07;8.95;;;5.15;;
18102;SDS011;9178;51.120;6.192;2023-07-09T02:08:36;6.22;;;5.20;;
18102;SDS011;9178;51.120;6.192;2023-07-09T02:11:03;6.57;;;5.22;;
18102;SDS011;9178;51.120;6.192;2023-07-09T02:13:31;7.38;;;5.13;;
18102;SDS011;9178;51.120;6.192;2023-07-09T02:16:01;8.43;;;5.85;;
18102;SDS011;9178;51.120;6.192;2023-07-09T02:18:28;8.00;;;5.30;;
18102;SDS011;9178;51.120;6.192;2023-07-09T02:20:55;8.48;;;5.35;;
18102;SDS011;9178;51.120;6.192;2023-07-09T02:23:25;8.55;;;5.30;;
18102;SDS011;9178;51.120;6.192;2023-07-09T02:25:53;8.05;;;5.47;;
18102;SDS011;9178;51.120;6.192;2023-07-09T02:28:20;8.48;;;5.30;;
18102;SDS011;9178;51.120;6.192;2023-07-09T02:30:48;7.97;;;5.47;;
18102;SDS011;9178;51.120;6.192;2023-07-09T02:33:18;7.50;;;4.80;;
18102;SDS011;9178;51.120;6.192;2023-07-09T02:35:45;7.45;;;5.10;;
18102;SDS011;9178;51.120;6.192;2023-07-09T02:38:12;11.25;;;5.60;;
18102;SDS011;9178;51.120;6.192;2023-07-09T02:40:39;7.20;;;5.30;;
18102;SDS011;9178;51.120;6.192;2023-07-09T02:43:06;8.30;;;4.90;;
18102;SDS011;9178;51.120;6.192;2023-07-09T02:45:33;9.00;;;5.40;;
18102;SDS011;9178;51.120;6.192;2023-07-09T02:48:02;7.57;;;5.07;;
18102;SDS011;9178;51.120;6.192;2023-07-09T02:50:31;9.23;;;5.35;;
18102;SDS011;9178;51.120;6.192;2023-07-09T02:52:58;11.15;;;5.80;;
18102;SDS011;9178;51.120;6.192;2023-07-09T02:55:25;8.55;;;5.28;;
18102;SDS011;9178;51.120;6.192;2023-07-09T02:57:52;5.60;;;4.88;;
18102;SDS011;9178;51.120;6.192;2023-07-09T03:00:19;10.70;;;5.40;;
18102;SDS011;9178;51.120;6.192;2023-07-09T03:02:49;7.65;;;5.32;;
18102;SDS011;9178;51.120;6.192;2023-07-09T03:05:18;10.30;;;5.20;;
18102;SDS011;9178;51.120;6.192;2023-07-09T03:07:44;8.02;;;5.15;;
18102;SDS011;9178;51.120;6.192;2023-07-09T03:10:11;10.05;;;5.20;;
18102;SDS011;9178;51.120;6.192;2023-07-09T03:12:38;7.00;;;5.40;;
18102;SDS011;9178;51.120;6.192;2023-07-09T03:15:05;6.72;;;4.60;;
18102;SDS011;9178;51.120;6.192;2023-07-09T03:17:33;7.15;;;5.40;;
18102;SDS011;9178;51.120;6.192;2023-07-09T03:20:00;14.85;;;5.93;;
18102;SDS011;9178;51.120;6.192;2023-07-09T03:22:29;7.70;;;4.93;;
18102;SDS011;9178;51.120;6.192;2023-07-09T03:24:56;8.13;;;5.38;;
18102;SDS011;9178;51.120;6.192;2023-07-09T03:27:23;7.68;;;5.75;;
18102;SDS011;9178;51.120;6.192;2023-07-09T03:29:50;10.07;;;5.13;;
18102;SDS011;9178;51.120;6.192;2023-07-09T03:32:17;8.40;;;4.60;;
18102;SDS011;9178;51.120;6.192;2023-07-09T03:34:44;6.63;;;5.22;;
18102;SDS011;9178;51.120;6.192;2023-07-09T03:37:12;7.68;;;4.90;;
18102;SDS011;9178;51.120;6.192;2023-07-09T03:39:40;8.50;;;5.75;;
18102;SDS011;9178;51.120;6.192;2023-07-09T03:42:07;10.60;;;5.75;;
18102;SDS011;9178;51.120;6.192;2023-07-09T03:44:34;9.10;;;5.90;;
18102;SDS011;9178;51.120;6.192;2023-07-09T03:47:03;8.02;;;5.90;;
18102;SDS011;9178;51.120;6.192;2023-07-09T03:49:30;6.63;;;5.75;;
18102;SDS011;9178;51.120;6.192;2023-07-09T03:51:58;9.05;;;5.75;;
18102;SDS011;9178;51.120;6.192;2023-07-09T03:54:25;10.32;;;5.55;;
18102;SDS011;9178;51.120;6.192;2023-07-09T03:56:54;8.68;;;5.57;;
18102;SDS011;9178;51.120;6.192;2023-07-09T03:59:20;9.48;;;5.57;;
18102;SDS011;9178;51.120;6.192;2023-07-09T04:01:47;8.65;;;5.95;;
18102;SDS011;9178;51.120;6.192;2023-07-09T04:04:14;9.43;;;5.82;;
18102;SDS011;9178;51.120;6.192;2023-07-09T04:06:45;7.97;;;5.20;;
18102;SDS011;9178;51.120;6.192;2023-07-09T04:09:12;9.55;;;5.90;;
18102;SDS011;9178;51.120;6.192;2023-07-09T04:11:39;8.00;;;6.00;;
18102;SDS011;9178;51.120;6.192;2023-07-09T04:14:07;8.55;;;5.95;;
18102;SDS011;9178;51.120;6.192;2023-07-09T04:16:34;9.77;;;6.35;;
18102;SDS011;9178;51.120;6.192;2023-07-09T04:19:01;12.55;;;6.28;;
18102;SDS011;9178;51.120;6.192;2023-07-09T04:21:28;11.93;;;6.57;;
18102;SDS011;9178;51.120;6.192;2023-07-09T04:23:55;11.02;;;6.50;;
18102;SDS011;9178;51.120;6.192;2023-07-09T04:26:22;8.23;;;6.15;;
18102;SDS011;9178;51.120;6.192;2023-07-09T04:28:49;8.55;;;6.10;;
18102;SDS011;9178;51.120;6.192;2023-07-09T04:31:17;7.10;;;5.80;;
18102;SDS011;9178;51.120;6.192;2023-07-09T04:33:44;10.63;;;6.07;;
18102;SDS011;9178;51.120;6.192;2023-07-09T04:36:13;7.25;;;5.90;;
18102;SDS011;9178;51.120;6.192;2023-07-09T04:38:40;10.57;;;6.82;;
18102;SDS011;9178;51.120;6.192;2023-07-09T04:41:07;8.25;;;5.72;;
18102;SDS011;9178;51.120;6.192;2023-07-09T04:43:34;14.23;;;6.10;;
18102;SDS011;9178;51.120;6.192;2023-07-09T04:46:01;6.30;;;5.47;;
18102;SDS011;9178;51.120;6.192;2023-07-09T04:48:29;9.90;;;6.28;;
18102;SDS011;9178;51.120;6.192;2023-07-09T04:50:57;7.10;;;4.95;;
18102;SDS011;9178;51.120;6.192;2023-07-09T04:53:24;9.20;;;5.95;;
18102;SDS011;9178;51.120;6.192;2023-07-09T04:55:51;9.48;;;5.90;;
18102;SDS011;9178;51.120;6.192;2023-07-09T04:58:18;10.05;;;5.70;;
18102;SDS011;9178;51.120;6.192;2023-07-09T05:00:45;9.40;;;5.63;;
18102;SDS011;9178;51.120;6.192;2023-07-09T05:03:13;10.43;;;5.85;;
18102;SDS011;9178;51.120;6.192;2023-07-09T05:05:43;11.05;;;5.80;;
18102;SDS011;9178;51.120;6.192;2023-07-09T05:08:10;8.57;;;5.68;;
18102;SDS011;9178;51.120;6.192;2023-07-09T05:10:40;12.95;;;6.60;;
18102;SDS011;9178;51.120;6.192;2023-07-09T05:13:08;6.63;;;5.20;;
18102;SDS011;9178;51.120;6.192;2023-07-09T05:15:35;8.85;;;6.15;;
18102;SDS011;9178;51.120;6.192;2023-07-09T05:18:02;10.27;;;5.95;;
18102;SDS011;9178;51.120;6.192;2023-07-09T05:20:28;7.75;;;5.57;;
18102;SDS011;9178;51.120;6.192;2023-07-09T05:22:57;7.80;;;5.25;;
18102;SDS011;9178;51.120;6.192;2023-07-09T05:25:24;8.10;;;5.40;;
18102;SDS011;9178;51.120;6.192;2023-07-09T05:27:51;9.48;;;5.90;;
18102;SDS011;9178;51.120;6.192;2023-07-09T05:30:17;8.88;;;5.68;;
18102;SDS011;9178;51.120;6.192;2023-07-09T05:32:45;8.52;;;5.75;;
18102;SDS011;9178;51.120;6.192;2023-07-09T05:35:12;11.20;;;6.03;;
18102;SDS011;9178;51.120;6.192;2023-07-09T05:37:39;8.32;;;5.15;;
18102;SDS011;9178;51.120;6.192;2023-07-09T05:40:08;8.13;;;5.18;;
18102;SDS011;9178;51.120;6.192;2023-07-09T05:42:35;10.68;;;5.47;;
18102;SDS011;9178;51.120;6.192;2023-07-09T05:45:02;9.65;;;5.13;;
18102;SDS011;9178;51.120;6.192;2023-07-09T05:47:35;8.65;;;5.32;;
18102;SDS011;9178;51.120;6.192;2023-07-09T05:50:03;6.93;;;5.40;;
18102;SDS011;9178;51.120;6.192;2023-07-09T05:52:30;8.15;;;5.03;;
18102;SDS011;9178;51.120;6.192;2023-07-09T05:54:57;8.85;;;5.13;;
18102;SDS011;9178;51.120;6.192;2023-07-09T05:57:26;11.70;;;5.35;;
18102;SDS011;9178;51.120;6.192;2023-07-09T05:59:53;11.13;;;5.25;;
18102;SDS011;9178;51.120;6.192;2023-07-09T06:02:20;10.55;;;5.40;;
18102;SDS011;9178;51.120;6.192;2023-07-09T06:04:48;7.22;;;5.22;;
18102;SDS011;9178;51.120;6.192;2023-07-09T06:07:15;8.90;;;5.13;;
18102;SDS011;9178;51.120;6.192;2023-07-09T06:09:43;7.40;;;5.10;;
18102;SDS011;9178;51.120;6.192;2023-07-09T06:12:11;8.18;;;4.75;;
18102;SDS011;9178;51.120;6.192;2023-07-09T06:14:40;9.98;;;4.88;;
18102;SDS011;9178;51.120;6.192;2023-07-09T06:17:07;7.30;;;5.15;;
18102;SDS011;9178;51.120;6.192;2023-07-09T06:19:34;8.65;;;5.38;;
18102;SDS011;9178;51.120;6.192;2023-07-09T06:22:01;9.13;;;4.75;;
18102;SDS011;9178;51.120;6.192;2023-07-09T06:24:28;9.95;;;5.05;;
18102;SDS011;9178;51.120;6.192;2023-07-09T06:26:54;6.07;;;4.72;;
18102;SDS011;9178;51.120;6.192;2023-07-09T06:29:21;8.57;;;5.22;;
18102;SDS011;9178;51.120;6.192;2023-07-09T06:31:52;7.80;;;4.90;;
18102;SDS011;9178;51.120;6.192;2023-07-09T06:34:19;8.15;;;4.80;;
18102;SDS011;9178;51.120;6.192;2023-07-09T06:36:46;6.63;;;4.53;;
18102;SDS011;9178;51.120;6.192;2023-07-09T06:39:13;8.07;;;5.07;;
18102;SDS011;9178;51.120;6.192;2023-07-09T06:41:41;8.13;;;4.50;;
18102;SDS011;9178;51.120;6.192;2023-07-09T06:44:08;6.15;;;5.03;;
18102;SDS011;9178;51.120;6.192;2023-07-09T06:46:36;7.72;;;5.03;;
18102;SDS011;9178;51.120;6.192;2023-07-09T06:49:04;7.43;;;4.65;;
18102;SDS011;9178;51.120;6.192;2023-07-09T06:51:31;7.15;;;5.10;;
18102;SDS011;9178;51.120;6.192;2023-07-09T06:53:59;8.00;;;4.65;;
18102;SDS011;9178;51.120;6.192;2023-07-09T06:56:26;10.52;;;5.03;;
18102;SDS011;9178;51.120;6.192;2023-07-09T06:58:53;8.32;;;5.15;;
18102;SDS011;9178;51.120;6.192;2023-07-09T07:01:21;8.43;;;4.97;;
18102;SDS011;9178;51.120;6.192;2023-07-09T07:03:48;7.22;;;4.53;;
18102;SDS011;9178;51.120;6.192;2023-07-09T07:06:16;9.27;;;5.40;;
18102;SDS011;9178;51.120;6.192;2023-07-09T07:08:43;6.95;;;4.90;;
18102;SDS011;9178;51.120;6.192;2023-07-09T07:11:10;9.05;;;5.28;;
18102;SDS011;9178;51.120;6.192;2023-07-09T07:13:38;7.38;;;4.80;;
18102;SDS011;9178;51.120;6.192;2023-07-09T07:16:06;10.05;;;5.22;;
18102;SDS011;9178;51.120;6.192;2023-07-09T07:18:35;7.53;;;5.18;;
18102;SDS011;9178;51.120;6.192;2023-07-09T07:21:02;5.97;;;4.28;;
18102;SDS011;9178;51.120;6.192;2023-07-09T07:23:32;7.68;;;5.05;;
18102;SDS011;9178;51.120;6.192;2023-07-09T07:25:59;7.00;;;4.70;;
18102;SDS011;9178;51.120;6.192;2023-07-09T07:28:26;9.25;;;4.43;;
18102;SDS011;9178;51.120;6.192;2023-07-09T07:30:59;8.77;;;4.30;;
18102;SDS011;9178;51.120;6.192;2023-07-09T07:33:27;8.70;;;4.65;;
18102;SDS011;9178;51.120;6.192;2023-07-09T07:35:54;7.32;;;4.55;;
18102;SDS011;9178;51.120;6.192;2023-07-09T07:38:21;11.15;;;4.50;;
18102;SDS011;9178;51.120;6.192;2023-07-09T07:40:50;16.95;;;5.25;;
18102;SDS011;9178;51.120;6.192;2023-07-09T07:43:16;10.30;;;5.10;;
18102;SDS011;9178;51.120;6.192;2023-07-09T07:45:43;12.63;;;5.05;;
18102;SDS011;9178;51.120;6.192;2023-07-09T07:48:10;9.88;;;4.90;;
18102;SDS011;9178;51.120;6.192;2023-07-09T07:50:37;13.07;;;4.47;;
18102;SDS011;9178;51.120;6.192;2023-07-09T07:53:04;12.90;;;4.88;;
18102;SDS011;9178;51.120;6.192;2023-07-09T07:55:32;10.82;;;4.88;;
18102;SDS011;9178;51.120;6.192;2023-07-09T07:58:02;10.75;;;5.03;;
18102;SDS011;9178;51.120;6.192;2023-07-09T08:00:30;8.38;;;4.78;;
18102;SDS011;9178;51.120;6.192;2023-07-09T08:02:57;7.28;;;4.90;;
18102;SDS011;9178;51.120;6.192;2023-07-09T08:05:24;9.93;;;4.65;;
18102;SDS011;9178;51.120;6.192;2023-07-09T08:07:51;8.30;;;4.70;;
18102;SDS011;9178;51.120;6.192;2023-07-09T08:10:18;7.00;;;4.38;;
18102;SDS011;9178;51.120;6.192;2023-07-09T08:12:45;9.65;;;4.57;;
18102;SDS011;9178;51.120;6.192;2023-07-09T08:15:13;9.38;;;4.55;;
18102;SDS011;9178;51.120;6.192;2023-07-09T08:17:46;10.75;;;4.57;;
18102;SDS011;9178;51.120;6.192;2023-07-09T08:20:14;13.25;;;4.55;;
18102;SDS011;9178;51.120;6.192;2023-07-09T08:22:42;9.88;;;4.70;;
18102;SDS011;9178;51.120;6.192;2023-07-09T08:25:09;7.65;;;4.57;;
18102;SDS011;9178;51.120;6.192;2023-07-09T08:27:36;7.85;;;4.35;;
18102;SDS011;9178;51.120;6.192;2023-07-09T08:30:03;5.95;;;3.97;;
18102;SDS011;9178;51.120;6.192;2023-07-09T08:32:33;4.93;;;3.70;;
18102;SDS011;9178;51.120;6.192;2023-07-09T08:34:59;8.52;;;3.65;;
18102;SDS011;9178;51.120;6.192;2023-07-09T08:37:27;7.47;;;3.70;;
18102;SDS011;9178;51.120;6.192;2023-07-09T08:39:54;5.93;;;3.83;;
18102;SDS011;9178;51.120;6.192;2023-07-09T08:42:22;7.80;;;3.90;;
18102;SDS011;9178;51.120;6.192;2023-07-09T08:45:03;8.27;;;3.60;;
18102;SDS011;9178;51.120;6.192;2023-07-09T08:47:46;6.05;;;3.60;;
18102;SDS011;9178;51.120;6.192;2023-07-09T08:50:24;5.65;;;3.50;;
18102;SDS011;9178;51.120;6.192;2023-07-09T08:52:54;4.65;;;3.58;;
18102;SDS011;9178;51.120;6.192;2023-07-09T08:55:24;5.20;;;3.63;;
18102;SDS011;9178;51.120;6.192;2023-07-09T08:57:55;8.20;;;3.70;;
18102;SDS011;9178;51.120;6.192;2023-07-09T09:00:27;4.82;;;3.28;;
18102;SDS011;9178;51.120;6.192;2023-07-09T09:02:59;4.63;;;3.55;;
18102;SDS011;9178;51.120;6.192;2023-07-09T09:05:28;6.07;;;3.40;;
18102;SDS011;9178;51.120;6.192;2023-07-09T09:08:02;4.45;;;3.60;;
18102;SDS011;9178;51.120;6.192;2023-07-09T09:10:33;6.13;;;3.53;;
18102;SDS011;9178;51.120;6.192;2023-07-09T09:13:05;7.47;;;3.28;;
18102;SDS011;9178;51.120;6.192;2023-07-09T09:15:37;3.47;;;3.05;;
18102;SDS011;9178;51.120;6.192;2023-07-09T09:18:19;5.05;;;3.25;;
18102;SDS011;9178;51.120;6.192;2023-07-09T09:20:50;4.32;;;3.30;;
18102;SDS011;9178;51.120;6.192;2023-07-09T09:23:21;8.98;;;3.80;;
18102;SDS011;9178;51.120;6.192;2023-07-09T09:25:52;5.63;;;3.88;;
18102;SDS011;9178;51.120;6.192;2023-07-09T09:28:21;6.78;;;3.42;;
18102;SDS011;9178;51.120;6.192;2023-07-09T09:30:50;5.70;;;3.40;;
18102;SDS011;9178;51.120;6.192;2023-07-09T09:33:18;5.05;;;3.17;;
18102;SDS011;9178;51.120;6.192;2023-07-09T09:35:45;4.32;;;3.30;;
18102;SDS011;9178;51.120;6.192;2023-07-09T09:38:15;4.47;;;3.35;;
18102;SDS011;9178;51.120;6.192;2023-07-09T09:40:44;3.70;;;2.97;;
18102;SDS011;9178;51.120;6.192;2023-07-09T09:43:31;4.57;;;3.30;;
18102;SDS011;9178;51.120;6.192;2023-07-09T09:45:59;4.03;;;3.28;;
18102;SDS011;9178;51.120;6.192;2023-07-09T09:48:30;4.32;;;3.03;;
18102;SDS011;9178;51.120;6.192;2023-07-09T09:50:58;5.32;;;3.47;;
18102;SDS011;9178;51.120;6.192;2023-07-09T09:53:29;4.38;;;2.65;;
18102;SDS011;9178;51.120;6.192;2023-07-09T09:56:04;5.43;;;3.53;;
18102;SDS011;9178;51.120;6.192;2023-07-09T09:58:32;4.05;;;3.10;;
18102;SDS011;9178;51.120;6.192;2023-07-09T10:01:05;4.60;;;2.88;;
18102;SDS011;9178;51.120;6.192;2023-07-09T10:03:40;3.70;;;3.20;;
18102;SDS011;9178;51.120;6.192;2023-07-09T10:06:10;6.45;;;3.17;;
18102;SDS011;9178;51.120;6.192;2023-07-09T10:08:46;4.47;;;3.10;;
18102;SDS011;9178;51.120;6.192;2023-07-09T10:11:24;5.13;;;3.20;;
18102;SDS011;9178;51.120;6.192;2023-07-09T10:13:58;4.03;;;3.03;;
18102;SDS011;9178;51.120;6.192;2023-07-09T10:16:31;4.90;;;2.97;;
18102;SDS011;9178;51.120;6.192;2023-07-09T10:19:07;3.88;;;3.03;;
18102;SDS011;9178;51.120;6.192;2023-07-09T10:21:42;7.35;;;3.15;;
18102;SDS011;9178;51.120;6.192;2023-07-09T10:24:17;5.70;;;3.00;;
18102;SDS011;9178;51.120;6.192;2023-07-09T10:27:06;2.67;;;2.45;;
18102;SDS011;9178;51.120;6.192;2023-07-09T10:29:41;3.00;;;2.67;;
18102;SDS011;9178;51.120;6.192;2023-07-09T10:32:21;3.55;;;2.90;;
18102;SDS011;9178;51.120;6.192;2023-07-09T10:35:00;5.90;;;2.80;;
18102;SDS011;9178;51.120;6.192;2023-07-09T10:40:28;3.75;;;2.75;;
18102;SDS011;9178;51.120;6.192;2023-07-09T10:43:00;7.03;;;2.60;;
18102;SDS011;9178;51.120;6.192;2023-07-09T10:45:29;5.00;;;2.95;;
18102;SDS011;9178;51.120;6.192;2023-07-09T10:48:01;3.35;;;2.67;;
18102;SDS011;9178;51.120;6.192;2023-07-09T10:50:34;3.40;;;2.75;;
18102;SDS011;9178;51.120;6.192;2023-07-09T10:53:05;5.07;;;2.40;;
18102;SDS011;9178;51.120;6.192;2023-07-09T10:55:39;6.90;;;2.95;;
18102;SDS011;9178;51.120;6.192;2023-07-09T10:58:16;2.95;;;2.28;;
18102;SDS011;9178;51.120;6.192;2023-07-09T11:00:53;4.57;;;2.80;;
18102;SDS011;9178;51.120;6.192;2023-07-09T11:03:21;6.47;;;2.42;;
18102;SDS011;9178;51.120;6.192;2023-07-09T11:05:59;4.70;;;2.40;;
18102;SDS011;9178;51.120;6.192;2023-07-09T11:08:27;4.10;;;2.40;;
18102;SDS011;9178;51.120;6.192;2023-07-09T11:11:02;3.28;;;2.63;;
18102;SDS011;9178;51.120;6.192;2023-07-09T11:13:33;3.35;;;2.83;;
18102;SDS011;9178;51.120;6.192;2023-07-09T11:16:05;4.65;;;2.90;;
18102;SDS011;9178;51.120;6.192;2023-07-09T11:18:34;5.97;;;2.92;;
18102;SDS011;9178;51.120;6.192;2023-07-09T11:21:05;3.70;;;2.80;;
18102;SDS011;9178;51.120;6.192;2023-07-09T11:23:38;3.78;;;2.70;;
18102;SDS011;9178;51.120;6.192;2023-07-09T11:26:11;3.25;;;2.95;;
18102;SDS011;9178;51.120;6.192;2023-07-09T11:28:40;4.30;;;2.55;;
18102;SDS011;9178;51.120;6.192;2023-07-09T11:31:16;4.80;;;2.85;;
18102;SDS011;9178;51.120;6.192;2023-07-09T11:33:48;3.03;;;2.50;;
18102;SDS011;9178;51.120;6.192;2023-07-09T11:36:27;3.53;;;2.88;;
18102;SDS011;9178;51.120;6.192;2023-07-09T11:38:55;5.35;;;2.30;;
18102;SDS011;9178;51.120;6.192;2023-07-09T11:41:26;5.22;;;2.78;;
18102;SDS011;9178;51.120;6.192;2023-07-09T11:44:03;3.33;;;2.42;;
18102;SDS011;9178;51.120;6.192;2023-07-09T11:46:36;2.97;;;2.30;;
18102;SDS011;9178;51.120;6.192;2023-07-09T11:49:11;2.20;;;2.00;;
18102;SDS011;9178;51.120;6.192;2023-07-09T11:51:42;3.47;;;2.42;;
18102;SDS011;9178;51.120;6.192;2023-07-09T11:54:14;3.65;;;2.10;;
18102;SDS011;9178;51.120;6.192;2023-07-09T11:56:52;5.70;;;2.42;;
18102;SDS011;9178;51.120;6.192;2023-07-09T11:59:24;3.15;;;2.45;;
18102;SDS011;9178;51.120;6.192;2023-07-09T12:01:51;4.05;;;2.80;;
18102;SDS011;9178;51.120;6.192;2023-07-09T12:04:21;3.65;;;3.05;;
18102;SDS011;9178;51.120;6.192;2023-07-09T12:06:56;3.10;;;2.80;;
18102;SDS011;9178;51.120;6.192;2023-07-09T12:09:29;4.93;;;2.65;;
18102;SDS011;9178;51.120;6.192;2023-07-09T12:11:58;4.75;;;2.95;;
18102;SDS011;9178;51.120;6.192;2023-07-09T12:14:26;3.80;;;2.60;;
18102;SDS011;9178;51.120;6.192;2023-07-09T12:16:53;4.03;;;2.45;;
18102;SDS011;9178;51.120;6.192;2023-07-09T12:19:24;4.93;;;2.60;;
18102;SDS011;9178;51.120;6.192;2023-07-09T12:21:57;3.28;;;2.92;;
18102;SDS011;9178;51.120;6.192;2023-07-09T12:24:25;3.50;;;2.58;;
18102;SDS011;9178;51.120;6.192;2023-07-09T12:26:53;2.85;;;2.45;;
18102;SDS011;9178;51.120;6.192;2023-07-09T12:29:23;4.13;;;2.60;;
18102;SDS011;9178;51.120;6.192;2023-07-09T12:31:51;3.03;;;2.78;;
18102;SDS011;9178;51.120;6.192;2023-07-09T12:34:18;2.72;;;2.30;;
18102;SDS011;9178;51.120;6.192;2023-07-09T12:36:46;6.25;;;2.88;;
18102;SDS011;9178;51.120;6.192;2023-07-09T12:39:21;2.67;;;2.47;;
18102;SDS011;9178;51.120;6.192;2023-07-09T12:41:53;2.80;;;2.50;;
18102;SDS011;9178;51.120;6.192;2023-07-09T12:44:22;5.13;;;2.70;;
18102;SDS011;9178;51.120;6.192;2023-07-09T12:46:50;4.65;;;2.65;;
18102;SDS011;9178;51.120;6.192;2023-07-09T12:49:22;6.15;;;2.60;;
18102;SDS011;9178;51.120;6.192;2023-07-09T12:51:51;3.90;;;2.63;;
18102;SDS011;9178;51.120;6.192;2023-07-09T12:54:22;4.32;;;2.90;;
18102;SDS011;9178;51.120;6.192;2023-07-09T12:56:50;3.88;;;2.85;;
18102;SDS011;9178;51.120;6.192;2023-07-09T12:59:19;5.00;;;2.50;;
18102;SDS011;9178;51.120;6.192;2023-07-09T13:01:48;4.38;;;2.70;;
18102;SDS011;9178;51.120;6.192;2023-07-09T13:04:16;4.28;;;2.70;;
18102;SDS011;9178;51.120;6.192;2023-07-09T13:06:44;4.50;;;2.50;;
18102;SDS011;9178;51.120;6.192;2023-07-09T13:09:14;4.07;;;2.85;;
18102;SDS011;9178;51.120;6.192;2023-07-09T13:11:48;3.88;;;2.63;;
18102;SDS011;9178;51.120;6.192;2023-07-09T13:14:19;4.30;;;2.65;;
18102;SDS011;9178;51.120;6.192;2023-07-09T13:16:47;3.42;;;2.75;;
18102;SDS011;9178;51.120;6.192;2023-07-09T13:19:15;36.55;;;7.38;;
18102;SDS011;9178;51.120;6.192;2023-07-09T13:21:42;13.35;;;4.40;;
18102;SDS011;9178;51.120;6.192;2023-07-09T13:24:14;19.35;;;6.43;;
18102;SDS011;9178;51.120;6.192;2023-07-09T13:26:43;40.67;;;9.93;;
18102;SDS011;9178;51.120;6.192;2023-07-09T13:29:14;35.10;;;9.00;;
18102;SDS011;9178;51.120;6.192;2023-07-09T13:31:42;29.02;;;7.68;;
18102;SDS011;9178;51.120;6.192;2023-07-09T13:34:15;25.67;;;6.95;;
18102;SDS011;9178;51.120;6.192;2023-07-09T13:36:50;51.78;;;9.77;;
18102;SDS011;9178;51.120;6.192;2023-07-09T13:39:21;20.95;;;6.93;;
18102;SDS011;9178;51.120;6.192;2023-07-09T13:41:57;22.17;;;6.28;;
18102;SDS011;9178;51.120;6.192;2023-07-09T13:44:27;44.08;;;7.70;;
18102;SDS011;9178;51.120;6.192;2023-07-09T13:46:55;20.52;;;6.20;;
18102;SDS011;9178;51.120;6.192;2023-07-09T13:49:26;11.52;;;4.18;;
18102;SDS011;9178;51.120;6.192;2023-07-09T13:51:57;7.00;;;4.18;;
18102;SDS011;9178;51.120;6.192;2023-07-09T13:54:27;17.75;;;5.43;;
18102;SDS011;9178;51.120;6.192;2023-07-09T13:57:00;9.45;;;3.80;;
18102;SDS011;9178;51.120;6.192;2023-07-09T13:59:29;6.82;;;3.72;;
18102;SDS011;9178;51.120;6.192;2023-07-09T14:01:57;8.05;;;3.80;;
18102;SDS011;9178;51.120;6.192;2023-07-09T14:04:26;11.27;;;5.10;;
18102;SDS011;9178;51.120;6.192;2023-07-09T14:06:56;15.73;;;5.80;;
18102;SDS011;9178;51.120;6.192;2023-07-09T14:09:23;10.73;;;5.53;;
18102;SDS011;9178;51.120;6.192;2023-07-09T14:11:51;7.65;;;4.93;;
18102;SDS011;9178;51.120;6.192;2023-07-09T14:14:20;13.43;;;6.68;;
18102;SDS011;9178;51.120;6.192;2023-07-09T14:16:51;9.82;;;5.57;;
18102;SDS011;9178;51.120;6.192;2023-07-09T14:19:19;10.25;;;5.10;;
18102;SDS011;9178;51.120;6.192;2023-07-09T14:21:47;6.90;;;4.63;;
18102;SDS011;9178;51.120;6.192;2023-07-09T14:24:19;6.43;;;4.68;;
18102;SDS011;9178;51.120;6.192;2023-07-09T14:26:48;10.73;;;4.45;;
18102;SDS011;9178;51.120;6.192;2023-07-09T14:29:20;10.82;;;4.45;;
18102;SDS011;9178;51.120;6.192;2023-07-09T14:31:47;6.63;;;4.30;;
18102;SDS011;9178;51.120;6.192;2023-07-09T14:34:18;7.38;;;4.50;;
18102;SDS011;9178;51.120;6.192;2023-07-09T14:36:47;8.30;;;4.07;;
18102;SDS011;9178;51.120;6.192;2023-07-09T14:39:15;7.50;;;4.20;;
18102;SDS011;9178;51.120;6.192;2023-07-09T14:41:42;6.80;;;3.83;;
18102;SDS011;9178;51.120;6.192;2023-07-09T14:44:15;14.77;;;4.40;;
18102;SDS011;9178;51.120;6.192;2023-07-09T14:46:52;16.45;;;5.47;;
18102;SDS011;9178;51.120;6.192;2023-07-09T14:49:20;13.82;;;5.15;;
18102;SDS011;9178;51.120;6.192;2023-07-09T14:51:47;9.55;;;4.45;;
18102;SDS011;9178;51.120;6.192;2023-07-09T14:54:18;7.72;;;4.10;;
18102;SDS011;9178;51.120;6.192;2023-07-09T14:56:46;7.88;;;3.35;;
18102;SDS011;9178;51.120;6.192;2023-07-09T14:59:13;10.23;;;4.07;;
18102;SDS011;9178;51.120;6.192;2023-07-09T15:01:40;7.05;;;3.47;;
18102;SDS011;9178;51.120;6.192;2023-07-09T15:04:21;6.15;;;3.50;;
18102;SDS011;9178;51.120;6.192;2023-07-09T15:06:54;9.70;;;4.22;;
18102;SDS011;9178;51.120;6.192;2023-07-09T15:09:22;6.00;;;3.33;;
18102;SDS011;9178;51.120;6.192;2023-07-09T15:11:51;8.85;;;4.30;;
18102;SDS011;9178;51.120;6.192;2023-07-09T15:14:19;8.48;;;4.07;;